KYK weather

Public forecast

Using degrees Fahrenheit for public forecast. Weather courtesy of forecast.io.

Closest aviation weather report (METAR) to Karluk Airport

Closest report is Akhiok Airport, 38.7 nm (71.7 km) SSE. Retrieved 2020/08/15 03:56 UTC (12 minutes ago):

PAKH 150356Z AUTO CLR A2988 RMK AO2 SLPNO PWINO FZRANO

Closest aviation forecast (TAF) to Karluk Airport

Closest forecast is Kodiak Airport, 63.8 nm (118.1 km) E. Retrieved 2020-08-15 00:30 UTC (4 hours ago):

TAF PADQ 142328Z 1500/1524 27010KT P6SM SKC FM150400 30012G20KT P6SM SKC